sensor_id;sensor_type;location;lat;lon;timestamp;temperature;humidity
17007;DHT22;8620;51.168;4.154;2024-03-17T07:01:30;9.70;99.90
17007;DHT22;8620;51.168;4.154;2024-03-17T07:04:20;9.80;99.90
17007;DHT22;8620;51.168;4.154;2024-03-17T07:06:52;9.80;99.90
17007;DHT22;8620;51.168;4.154;2024-03-17T07:09:38;9.90;99.90
17007;DHT22;8620;51.168;4.154;2024-03-17T07:12:08;10.00;99.90
17007;DHT22;8620;51.168;4.154;2024-03-17T07:14:46;9.90;99.90
17007;DHT22;8620;51.168;4.154;2024-03-17T07:17:21;9.90;99.90
17007;DHT22;8620;51.168;4.154;2024-03-17T07:20:13;9.90;99.90
17007;DHT22;8620;51.168;4.154;2024-03-17T07:22:51;9.90;99.90
17007;DHT22;8620;51.168;4.154;2024-03-17T07:25:28;9.90;99.90
17007;DHT22;8620;51.168;4.154;2024-03-17T07:28:06;9.90;99.90
17007;DHT22;8620;51.168;4.154;2024-03-17T07:30:59;9.90;99.90
17007;DHT22;8620;51.168;4.154;2024-03-17T07:33:50;10.00;99.90
17007;DHT22;8620;51.168;4.154;2024-03-17T07:36:24;10.10;99.90
17007;DHT22;8620;51.168;4.154;2024-03-17T07:38:59;10.10;99.90
17007;DHT22;8620;51.168;4.154;2024-03-17T07:41:24;10.10;99.90
17007;DHT22;8620;51.168;4.154;2024-03-17T07:43:53;10.00;99.90
17007;DHT22;8620;51.168;4.154;2024-03-17T07:46:19;10.20;99.90
17007;DHT22;8620;51.168;4.154;2024-03-17T07:48:48;10.60;99.90
17007;DHT22;8620;51.168;4.154;2024-03-17T07:51:17;10.60;99.90
17007;DHT22;8620;51.168;4.154;2024-03-17T07:53:46;10.80;99.90
17007;DHT22;8620;51.168;4.154;2024-03-17T07:56:17;10.90;99.90
17007;DHT22;8620;51.168;4.154;2024-03-17T07:58:45;11.00;99.90
17007;DHT22;8620;51.168;4.154;2024-03-17T08:01:16;10.90;99.90
17007;DHT22;8620;51.168;4.154;2024-03-17T08:03:46;11.00;99.90
17007;DHT22;8620;51.168;4.154;2024-03-17T08:06:15;11.20;99.90
17007;DHT22;8620;51.168;4.154;2024-03-17T08:08:43;11.50;99.90
17007;DHT22;8620;51.168;4.154;2024-03-17T08:11:10;11.60;99.90
17007;DHT22;8620;51.168;4.154;2024-03-17T08:13:39;11.60;99.90
17007;DHT22;8620;51.168;4.154;2024-03-17T08:16:07;11.60;99.90
17007;DHT22;8620;51.168;4.154;2024-03-17T08:18:39;11.60;99.90
17007;DHT22;8620;51.168;4.154;2024-03-17T08:21:09;11.60;99.90
17007;DHT22;8620;51.168;4.154;2024-03-17T08:23:35;11.70;99.90
17007;DHT22;8620;51.168;4.154;2024-03-17T08:26:10;11.60;99.90
17007;DHT22;8620;51.168;4.154;2024-03-17T08:28:36;11.60;99.90
17007;DHT22;8620;51.168;4.154;2024-03-17T08:31:10;11.80;99.90
17007;DHT22;8620;51.168;4.154;2024-03-17T08:33:42;11.60;99.90
17007;DHT22;8620;51.168;4.154;2024-03-17T08:36:18;11.60;99.90
17007;DHT22;8620;51.168;4.154;2024-03-17T08:38:50;11.70;99.90
17007;DHT22;8620;51.168;4.154;2024-03-17T08:41:16;11.80;99.90
17007;DHT22;8620;51.168;4.154;2024-03-17T08:43:51;11.90;99.90
17007;DHT22;8620;51.168;4.154;2024-03-17T08:46:59;11.90;99.90
17007;DHT22;8620;51.168;4.154;2024-03-17T08:49:27;11.90;99.90
17007;DHT22;8620;51.168;4.154;2024-03-17T08:51:58;11.80;99.90
17007;DHT22;8620;51.168;4.154;2024-03-17T08:54:41;11.70;99.90
17007;DHT22;8620;51.168;4.154;2024-03-17T08:57:29;11.60;99.90
17007;DHT22;8620;51.168;4.154;2024-03-17T08:59:57;11.40;99.90
17007;DHT22;8620;51.168;4.154;2024-03-17T09:02:30;11.60;99.90
17007;DHT22;8620;51.168;4.154;2024-03-17T09:05:15;11.60;99.90
17007;DHT22;8620;51.168;4.154;2024-03-17T09:07:44;11.30;99.90
17007;DHT22;8620;51.168;4.154;2024-03-17T09:10:28;11.00;99.90
17007;DHT22;8620;51.168;4.154;2024-03-17T09:12:54;11.00;99.90
17007;DHT22;8620;51.168;4.154;2024-03-17T09:15:22;10.90;99.90
17007;DHT22;8620;51.168;4.154;2024-03-17T09:17:51;10.80;99.90
17007;DHT22;8620;51.168;4.154;2024-03-17T09:20:33;10.80;99.90
17007;DHT22;8620;51.168;4.154;2024-03-17T09:23:22;10.90;99.90
17007;DHT22;8620;51.168;4.154;2024-03-17T09:29:08;10.90;99.90
17007;DHT22;8620;51.168;4.154;2024-03-17T09:31:57;10.90;99.90
17007;DHT22;8620;51.168;4.154;2024-03-17T09:34:43;10.90;99.90
17007;DHT22;8620;51.168;4.154;2024-03-17T09:37:36;11.00;99.90
17007;DHT22;8620;51.168;4.154;2024-03-17T09:40:22;11.20;99.90
17007;DHT22;8620;51.168;4.154;2024-03-17T09:42:53;11.10;99.90
17007;DHT22;8620;51.168;4.154;2024-03-17T09:45:57;11.10;99.90
17007;DHT22;8620;51.168;4.154;2024-03-17T09:48:29;10.90;99.90
17007;DHT22;8620;51.168;4.154;2024-03-17T09:51:00;11.10;99.90
17007;DHT22;8620;51.168;4.154;2024-03-17T09:53:33;11.20;99.90
17007;DHT22;8620;51.168;4.154;2024-03-17T09:56:11;11.30;99.90
17007;DHT22;8620;51.168;4.154;2024-03-17T09:58:45;11.30;99.90
17007;DHT22;8620;51.168;4.154;2024-03-17T10:01:12;11.30;99.90
17007;DHT22;8620;51.168;4.154;2024-03-17T10:06:15;11.40;99.90
17007;DHT22;8620;51.168;4.154;2024-03-17T10:11:09;11.60;99.90
17007;DHT22;8620;51.168;4.154;2024-03-17T10:13:37;11.40;99.90
17007;DHT22;8620;51.168;4.154;2024-03-17T10:16:03;11.40;99.90
17007;DHT22;8620;51.168;4.154;2024-03-17T10:18:31;11.50;99.90
17007;DHT22;8620;51.168;4.154;2024-03-17T10:33:25;11.30;99.90
17007;DHT22;8620;51.168;4.154;2024-03-17T10:36:00;11.50;99.90
17007;DHT22;8620;51.168;4.154;2024-03-17T10:38:36;11.80;99.90
17007;DHT22;8620;51.168;4.154;2024-03-17T10:41:05;12.10;99.90
17007;DHT22;8620;51.168;4.154;2024-03-17T10:43:31;12.20;99.90
17007;DHT22;8620;51.168;4.154;2024-03-17T10:46:03;12.30;99.90
17007;DHT22;8620;51.168;4.154;2024-03-17T10:48:32;12.30;99.90
17007;DHT22;8620;51.168;4.154;2024-03-17T10:51:01;12.40;99.90
17007;DHT22;8620;51.168;4.154;2024-03-17T10:53:33;12.50;99.90
17007;DHT22;8620;51.168;4.154;2024-03-17T10:56:05;12.50;99.90
17007;DHT22;8620;51.168;4.154;2024-03-17T10:58:38;12.50;99.90
17007;DHT22;8620;51.168;4.154;2024-03-17T11:01:12;12.50;99.90
17007;DHT22;8620;51.168;4.154;2024-03-17T11:03:48;12.80;99.90
17007;DHT22;8620;51.168;4.154;2024-03-17T11:06:35;12.90;99.90
17007;DHT22;8620;51.168;4.154;2024-03-17T11:09:14;12.80;99.90
17007;DHT22;8620;51.168;4.154;2024-03-17T11:11:43;12.70;99.90
17007;DHT22;8620;51.168;4.154;2024-03-17T11:14:29;12.90;99.90
17007;DHT22;8620;51.168;4.154;2024-03-17T11:16:58;12.90;99.90
17007;DHT22;8620;51.168;4.154;2024-03-17T11:20:05;12.90;99.90
17007;DHT22;8620;51.168;4.154;2024-03-17T11:22:45;13.00;99.90
17007;DHT22;8620;51.168;4.154;2024-03-17T11:28:44;13.20;99.90
17007;DHT22;8620;51.168;4.154;2024-03-17T11:37:40;13.80;99.90
17007;DHT22;8620;51.168;4.154;2024-03-17T11:40:45;14.10;99.90
17007;DHT22;8620;51.168;4.154;2024-03-17T11:43:53;14.40;99.90
17007;DHT22;8620;51.168;4.154;2024-03-17T11:50:05;14.50;99.90
17007;DHT22;8620;51.168;4.154;2024-03-17T11:52:39;14.60;99.90
17007;DHT22;8620;51.168;4.154;2024-03-17T11:56:01;14.50;99.90
17007;DHT22;8620;51.168;4.154;2024-03-17T11:58:45;14.90;99.90
17007;DHT22;8620;51.168;4.154;2024-03-17T12:01:28;15.40;99.90
17007;DHT22;8620;51.168;4.154;2024-03-17T12:04:13;15.60;99.90
17007;DHT22;8620;51.168;4.154;2024-03-17T12:10:15;15.50;99.90
17007;DHT22;8620;51.168;4.154;2024-03-17T12:12:59;15.70;99.90
17007;DHT22;8620;51.168;4.154;2024-03-17T12:15:38;16.10;99.90
17007;DHT22;8620;51.168;4.154;2024-03-17T12:18:39;16.10;99.90
17007;DHT22;8620;51.168;4.154;2024-03-17T12:21:31;16.20;99.90
17007;DHT22;8620;51.168;4.154;2024-03-17T12:37:18;16.40;99.90
17007;DHT22;8620;51.168;4.154;2024-03-17T12:40:03;15.90;99.90
17007;DHT22;8620;51.168;4.154;2024-03-17T12:42:52;15.80;99.90
17007;DHT22;8620;51.168;4.154;2024-03-17T12:46:03;15.70;99.90
17007;DHT22;8620;51.168;4.154;2024-03-17T12:48:47;15.80;99.90
17007;DHT22;8620;51.168;4.154;2024-03-17T12:51:46;16.10;99.90
17007;DHT22;8620;51.168;4.154;2024-03-17T12:54:30;16.10;99.90
17007;DHT22;8620;51.168;4.154;2024-03-17T12:57:08;16.50;99.90
17007;DHT22;8620;51.168;4.154;2024-03-17T12:59:53;16.40;99.90
17007;DHT22;8620;51.168;4.154;2024-03-17T13:03:04;16.30;99.90
17007;DHT22;8620;51.168;4.154;2024-03-17T13:05:37;16.20;99.90
17007;DHT22;8620;51.168;4.154;2024-03-17T13:08:08;16.10;99.90
17007;DHT22;8620;51.168;4.154;2024-03-17T13:10:34;15.90;99.90
17007;DHT22;8620;51.168;4.154;2024-03-17T13:13:08;15.80;99.90
17007;DHT22;8620;51.168;4.154;2024-03-17T13:15:44;15.80;99.90
17007;DHT22;8620;51.168;4.154;2024-03-17T13:18:16;15.90;99.90
17007;DHT22;8620;51.168;4.154;2024-03-17T13:20:47;15.80;99.90
17007;DHT22;8620;51.168;4.154;2024-03-17T13:23:15;15.60;99.90
17007;DHT22;8620;51.168;4.154;2024-03-17T13:25:42;15.40;99.90
17007;DHT22;8620;51.168;4.154;2024-03-17T13:28:09;15.40;99.90
17007;DHT22;8620;51.168;4.154;2024-03-17T13:30:59;15.50;99.90
17007;DHT22;8620;51.168;4.154;2024-03-17T13:33:25;15.40;99.90
17007;DHT22;8620;51.168;4.154;2024-03-17T13:35:51;15.60;99.90
17007;DHT22;8620;51.168;4.154;2024-03-17T13:38:20;15.60;99.90
17007;DHT22;8620;51.168;4.154;2024-03-17T13:40:46;15.90;99.90
17007;DHT22;8620;51.168;4.154;2024-03-17T13:43:12;15.80;99.90
17007;DHT22;8620;51.168;4.154;2024-03-17T13:45:41;15.60;99.90
17007;DHT22;8620;51.168;4.154;2024-03-17T13:48:18;15.30;99.90
17007;DHT22;8620;51.168;4.154;2024-03-17T13:51:22;15.30;99.90
17007;DHT22;8620;51.168;4.154;2024-03-17T13:54:14;15.30;99.90
17007;DHT22;8620;51.168;4.154;2024-03-17T13:57:26;15.30;99.90
17007;DHT22;8620;51.168;4.154;2024-03-17T14:00:10;15.40;99.90
17007;DHT22;8620;51.168;4.154;2024-03-17T14:02:58;15.50;99.90
17007;DHT22;8620;51.168;4.154;2024-03-17T14:06:07;15.40;99.90
17007;DHT22;8620;51.168;4.154;2024-03-17T14:08:35;15.20;99.90
17007;DHT22;8620;51.168;4.154;2024-03-17T14:11:29;15.20;99.90
17007;DHT22;8620;51.168;4.154;2024-03-17T14:13:58;15.10;99.90
17007;DHT22;8620;51.168;4.154;2024-03-17T14:16:24;14.90;99.90
17007;DHT22;8620;51.168;4.154;2024-03-17T14:18:49;15.00;99.90
17007;DHT22;8620;51.168;4.154;2024-03-17T14:21:15;15.10;99.90
17007;DHT22;8620;51.168;4.154;2024-03-17T14:23:44;15.10;99.90
17007;DHT22;8620;51.168;4.154;2024-03-17T14:26:10;15.20;99.90
17007;DHT22;8620;51.168;4.154;2024-03-17T14:28:38;15.20;99.90
17007;DHT22;8620;51.168;4.154;2024-03-17T14:31:05;15.30;99.90
17007;DHT22;8620;51.168;4.154;2024-03-17T14:33:33;15.20;99.90
17007;DHT22;8620;51.168;4.154;2024-03-17T14:36:07;15.10;99.90
17007;DHT22;8620;51.168;4.154;2024-03-17T14:38:33;15.00;99.90
17007;DHT22;8620;51.168;4.154;2024-03-17T14:41:17;14.90;99.90
17007;DHT22;8620;51.168;4.154;2024-03-17T14:44:06;14.90;99.90
17007;DHT22;8620;51.168;4.154;2024-03-17T14:46:38;14.90;99.90
17007;DHT22;8620;51.168;4.154;2024-03-17T14:49:14;14.90;99.90
17007;DHT22;8620;51.168;4.154;2024-03-17T14:51:45;14.70;99.90
17007;DHT22;8620;51.168;4.154;2024-03-17T14:54:19;14.60;99.90
17007;DHT22;8620;51.168;4.154;2024-03-17T14:56:50;14.60;99.90
17007;DHT22;8620;51.168;4.154;2024-03-17T14:59:42;14.70;99.90
17007;DHT22;8620;51.168;4.154;2024-03-17T15:02:20;14.80;99.90
17007;DHT22;8620;51.168;4.154;2024-03-17T15:05:05;14.80;99.90
17007;DHT22;8620;51.168;4.154;2024-03-17T15:07:32;14.70;99.90
17007;DHT22;8620;51.168;4.154;2024-03-17T15:10:09;14.70;99.90
17007;DHT22;8620;51.168;4.154;2024-03-17T15:12:58;14.60;99.90
17007;DHT22;8620;51.168;4.154;2024-03-17T15:15:36;14.70;99.90
17007;DHT22;8620;51.168;4.154;2024-03-17T15:18:26;14.70;99.90
17007;DHT22;8620;51.168;4.154;2024-03-17T15:21:04;14.90;99.90
17007;DHT22;8620;51.168;4.154;2024-03-17T15:24:12;14.90;99.90
17007;DHT22;8620;51.168;4.154;2024-03-17T15:26:48;14.80;99.90
17007;DHT22;8620;51.168;4.154;2024-03-17T15:29:42;14.70;99.90
17007;DHT22;8620;51.168;4.154;2024-03-17T15:32:26;14.80;99.90
17007;DHT22;8620;51.168;4.154;2024-03-17T15:35:16;14.80;99.90
17007;DHT22;8620;51.168;4.154;2024-03-17T15:38:22;14.70;99.90
17007;DHT22;8620;51.168;4.154;2024-03-17T15:40:58;14.80;99.90
17007;DHT22;8620;51.168;4.154;2024-03-17T15:43:48;14.70;99.90
17007;DHT22;8620;51.168;4.154;2024-03-17T15:46:46;14.60;99.90
17007;DHT22;8620;51.168;4.154;2024-03-17T15:49:18;14.70;99.90
17007;DHT22;8620;51.168;4.154;2024-03-17T15:51:47;14.70;99.90
17007;DHT22;8620;51.168;4.154;2024-03-17T15:54:45;14.70;99.90
17007;DHT22;8620;51.168;4.154;2024-03-17T15:57:38;14.80;99.90
17007;DHT22;8620;51.168;4.154;2024-03-17T16:00:29;14.80;99.90
17007;DHT22;8620;51.168;4.154;2024-03-17T16:03:11;14.70;99.90
17007;DHT22;8620;51.168;4.154;2024-03-17T16:05:48;14.50;99.90
17007;DHT22;8620;51.168;4.154;2024-03-17T16:08:24;14.60;99.90
17007;DHT22;8620;51.168;4.154;2024-03-17T16:11:16;14.70;99.90
17007;DHT22;8620;51.168;4.154;2024-03-17T16:14:08;14.50;99.90
17007;DHT22;8620;51.168;4.154;2024-03-17T16:17:01;14.40;99.90
17007;DHT22;8620;51.168;4.154;2024-03-17T16:19:33;14.40;99.90
17007;DHT22;8620;51.168;4.154;2024-03-17T16:22:43;14.30;99.90
17007;DHT22;8620;51.168;4.154;2024-03-17T16:25:17;14.20;99.90
17007;DHT22;8620;51.168;4.154;2024-03-17T16:27:46;14.10;99.90
17007;DHT22;8620;51.168;4.154;2024-03-17T16:30:12;14.20;99.90
17007;DHT22;8620;51.168;4.154;2024-03-17T16:32:44;14.30;99.90
17007;DHT22;8620;51.168;4.154;2024-03-17T16:35:13;14.10;99.90
17007;DHT22;8620;51.168;4.154;2024-03-17T16:37:39;14.10;99.90
17007;DHT22;8620;51.168;4.154;2024-03-17T16:40:17;14.20;99.90
17007;DHT22;8620;51.168;4.154;2024-03-17T16:42:43;14.20;99.90
17007;DHT22;8620;51.168;4.154;2024-03-17T16:45:19;14.10;99.90
17007;DHT22;8620;51.168;4.154;2024-03-17T16:47:45;14.00;99.90
17007;DHT22;8620;51.168;4.154;2024-03-17T16:50:12;14.20;99.90
17007;DHT22;8620;51.168;4.154;2024-03-17T16:52:39;14.10;99.90
17007;DHT22;8620;51.168;4.154;2024-03-17T16:55:06;14.10;99.90
17007;DHT22;8620;51.168;4.154;2024-03-17T16:57:36;13.90;99.90
17007;DHT22;8620;51.168;4.154;2024-03-17T17:00:12;13.90;99.90
17007;DHT22;8620;51.168;4.154;2024-03-17T17:03:04;13.80;99.90
17007;DHT22;8620;51.168;4.154;2024-03-17T17:05:32;13.70;99.90
17007;DHT22;8620;51.168;4.154;2024-03-17T17:08:01;13.70;99.90
17007;DHT22;8620;51.168;4.154;2024-03-17T17:10:31;13.70;99.90
17007;DHT22;8620;51.168;4.154;2024-03-17T17:13:01;13.70;99.90
17007;DHT22;8620;51.168;4.154;2024-03-17T17:15:27;13.50;99.90
17007;DHT22;8620;51.168;4.154;2024-03-17T17:17:56;13.50;99.90
17007;DHT22;8620;51.168;4.154;2024-03-17T17:20:26;13.40;99.90
17007;DHT22;8620;51.168;4.154;2024-03-17T17:23:02;13.30;99.90
17007;DHT22;8620;51.168;4.154;2024-03-17T17:25:27;13.20;99.90
17007;DHT22;8620;51.168;4.154;2024-03-17T17:27:57;13.10;99.90
17007;DHT22;8620;51.168;4.154;2024-03-17T17:30:32;13.20;99.90
17007;DHT22;8620;51.168;4.154;2024-03-17T17:33:00;13.20;99.90
17007;DHT22;8620;51.168;4.154;2024-03-17T17:35:27;13.10;99.90
17007;DHT22;8620;51.168;4.154;2024-03-17T17:37:54;13.10;99.90
17007;DHT22;8620;51.168;4.154;2024-03-17T17:40:31;13.00;99.90
17007;DHT22;8620;51.168;4.154;2024-03-17T17:42:57;13.00;99.90
17007;DHT22;8620;51.168;4.154;2024-03-17T17:45:27;13.00;99.90
17007;DHT22;8620;51.168;4.154;2024-03-17T17:47:55;13.10;99.90
17007;DHT22;8620;51.168;4.154;2024-03-17T17:50:23;13.10;99.90
17007;DHT22;8620;51.168;4.154;2024-03-17T17:52:55;13.00;99.90
17007;DHT22;8620;51.168;4.154;2024-03-17T17:55:33;12.90;99.90
17007;DHT22;8620;51.168;4.154;2024-03-17T17:58:02;12.90;99.90
17007;DHT22;8620;51.168;4.154;2024-03-17T18:00:33;12.90;99.90
17007;DHT22;8620;51.168;4.154;2024-03-17T18:03:00;12.90;99.90
17007;DHT22;8620;51.168;4.154;2024-03-17T18:05:55;12.90;99.90
17007;DHT22;8620;51.168;4.154;2024-03-17T18:08:25;12.90;99.90
17007;DHT22;8620;51.168;4.154;2024-03-17T18:10:54;13.00;99.90
17007;DHT22;8620;51.168;4.154;2024-03-17T18:13:24;13.00;99.90
17007;DHT22;8620;51.168;4.154;2024-03-17T18:19:19;12.90;99.90
17007;DHT22;8620;51.168;4.154;2024-03-17T18:22:08;12.90;99.90
17007;DHT22;8620;51.168;4.154;2024-03-17T18:24:47;12.90;99.90
17007;DHT22;8620;51.168;4.154;2024-03-17T18:27:27;12.90;99.90
17007;DHT22;8620;51.168;4.154;2024-03-17T18:29:56;13.10;99.90
17007;DHT22;8620;51.168;4.154;2024-03-17T18:32:21;13.00;99.90
17007;DHT22;8620;51.168;4.154;2024-03-17T18:34:59;12.80;99.90
17007;DHT22;8620;51.168;4.154;2024-03-17T18:37:32;12.90;99.90
17007;DHT22;8620;51.168;4.154;2024-03-17T18:40:11;12.90;99.90
17007;DHT22;8620;51.168;4.154;2024-03-17T18:42:37;12.90;99.90
17007;DHT22;8620;51.168;4.154;2024-03-17T18:45:24;12.90;99.90
17007;DHT22;8620;51.168;4.154;2024-03-17T18:48:28;13.00;99.90
17007;DHT22;8620;51.168;4.154;2024-03-17T18:51:01;12.90;99.90
17007;DHT22;8620;51.168;4.154;2024-03-17T18:53:47;12.90;99.90
17007;DHT22;8620;51.168;4.154;2024-03-17T18:56:57;12.80;99.90
17007;DHT22;8620;51.168;4.154;2024-03-17T19:00:14;12.80;99.90
17007;DHT22;8620;51.168;4.154;2024-03-17T19:03:34;12.90;99.90
17007;DHT22;8620;51.168;4.154;2024-03-17T19:06:40;12.80;99.90
17007;DHT22;8620;51.168;4.154;2024-03-17T19:09:18;12.70;99.90
17007;DHT22;8620;51.168;4.154;2024-03-17T19:12:33;12.70;99.90
17007;DHT22;8620;51.168;4.154;2024-03-17T19:15:07;12.70;99.90
17007;DHT22;8620;51.168;4.154;2024-03-17T19:18:12;12.70;99.90
17007;DHT22;8620;51.168;4.154;2024-03-17T19:20:40;12.70;99.90
17007;DHT22;8620;51.168;4.154;2024-03-17T19:23:09;12.70;99.90
17007;DHT22;8620;51.168;4.154;2024-03-17T19:25:40;13.00;99.90
17007;DHT22;8620;51.168;4.154;2024-03-17T19:28:19;12.80;99.90
17007;DHT22;8620;51.168;4.154;2024-03-17T19:31:19;12.80;99.90
17007;DHT22;8620;51.168;4.154;2024-03-17T19:34:14;12.90;99.90
17007;DHT22;8620;51.168;4.154;2024-03-17T19:36:41;12.90;99.90
17007;DHT22;8620;51.168;4.154;2024-03-17T19:39:28;12.90;99.90
17007;DHT22;8620;51.168;4.154;2024-03-17T19:42:00;12.80;99.90
17007;DHT22;8620;51.168;4.154;2024-03-17T19:44:30;12.70;99.90
17007;DHT22;8620;51.168;4.154;2024-03-17T19:46:59;12.80;99.90
17007;DHT22;8620;51.168;4.154;2024-03-17T19:49:36;12.80;99.90
17007;DHT22;8620;51.168;4.154;2024-03-17T19:52:25;13.10;99.90
17007;DHT22;8620;51.168;4.154;2024-03-17T19:55:14;13.20;99.90
17007;DHT22;8620;51.168;4.154;2024-03-17T19:57:45;13.30;99.90
17007;DHT22;8620;51.168;4.154;2024-03-17T20:00:11;13.60;99.90
17007;DHT22;8620;51.168;4.154;2024-03-17T20:02:40;13.50;99.90
17007;DHT22;8620;51.168;4.154;2024-03-17T20:05:09;13.40;99.90
17007;DHT22;8620;51.168;4.154;2024-03-17T20:07:39;13.20;99.90
17007;DHT22;8620;51.168;4.154;2024-03-17T20:10:07;13.20;99.90
17007;DHT22;8620;51.168;4.154;2024-03-17T20:12:37;13.10;99.90
17007;DHT22;8620;51.168;4.154;2024-03-17T20:15:03;13.00;99.90
17007;DHT22;8620;51.168;4.154;2024-03-17T20:17:39;12.90;99.90
17007;DHT22;8620;51.168;4.154;2024-03-17T20:20:14;13.00;99.90
17007;DHT22;8620;51.168;4.154;2024-03-17T20:22:43;13.10;99.90
17007;DHT22;8620;51.168;4.154;2024-03-17T20:25:12;13.30;99.90
17007;DHT22;8620;51.168;4.154;2024-03-17T20:27:41;13.50;99.90
17007;DHT22;8620;51.168;4.154;2024-03-17T20:30:07;13.50;99.90
17007;DHT22;8620;51.168;4.154;2024-03-17T20:32:40;13.40;99.90
17007;DHT22;8620;51.168;4.154;2024-03-17T20:35:06;13.30;99.90
17007;DHT22;8620;51.168;4.154;2024-03-17T20:37:33;13.20;99.90
17007;DHT22;8620;51.168;4.154;2024-03-17T20:39:58;13.10;99.90
17007;DHT22;8620;51.168;4.154;2024-03-17T20:42:25;13.20;99.90
17007;DHT22;8620;51.168;4.154;2024-03-17T20:44:51;13.10;99.90
17007;DHT22;8620;51.168;4.154;2024-03-17T20:47:17;13.00;99.90
17007;DHT22;8620;51.168;4.154;2024-03-17T20:50:16;13.10;99.90
17007;DHT22;8620;51.168;4.154;2024-03-17T20:52:45;13.20;99.90
17007;DHT22;8620;51.168;4.154;2024-03-17T20:55:11;13.10;99.90
17007;DHT22;8620;51.168;4.154;2024-03-17T20:57:39;13.10;99.90
